Time;durP1;ratioP1;P1;durP2;ratioP2;P2;SDS_P1;SDS_P2;PMS_P1;PMS_P2;Temp;Humidity;BMP_temperature;BMP_pressure;BME280_temperature;BME280_humidity;BME280_pressure;Samples;Min_cycle;Max_cycle;Signal;HPM_P1;HPM_P2
2023/04/07 00:00:33;;;;;;;14.90;12.70;;;;;;;8.59;100.00;100367.25;5046443;28;20092;-75
2023/04/07 00:03:01;;;;;;;16.48;12.77;;;;;;;8.32;100.00;100354.13;5013656;28;20172;-76
2023/04/07 00:05:26;;;;;;;15.38;12.77;;;;;;;7.89;100.00;100301.44;5046961;28;20030;-76
2023/04/07 00:07:51;;;;;;;17.42;13.07;;;;;;;8.49;100.00;100368.25;5013594;28;20046;-77
2023/04/07 00:10:17;;;;;;;14.80;12.65;;;;;;;8.72;100.00;100389.03;5013809;28;20044;-77
2023/04/07 00:12:42;;;;;;;14.95;12.40;;;;;;;8.28;100.00;100372.75;4997198;28;20053;-78
2023/04/07 00:15:08;;;;;;;15.45;12.88;;;;;;;8.41;100.00;100385.25;5014134;28;20061;-78
2023/04/07 00:17:34;;;;;;;16.45;13.23;;;;;;;8.22;100.00;100310.28;4996737;28;20033;-77
2023/04/07 00:19:59;;;;;;;15.93;13.70;;;;;;;8.58;100.00;100388.38;5014545;28;20411;-78
2023/04/07 00:22:27;;;;;;;16.33;14.00;;;;;;;7.89;100.00;100313.25;5014814;28;20050;-77
2023/04/07 00:24:53;;;;;;;15.25;13.65;;;;;;;8.23;100.00;100327.19;4997247;28;20492;-77
2023/04/07 00:27:18;;;;;;;18.73;14.00;;;;;;;8.44;100.00;100385.19;5014322;28;20030;-77
2023/04/07 00:29:45;;;;;;;17.25;12.98;;;;;;;8.49;100.00;100423.13;5013936;28;20038;-77
2023/04/07 00:32:11;;;;;;;15.63;13.85;;;;;;;8.40;100.00;100395.38;4997167;28;20026;-77
2023/04/07 00:34:36;;;;;;;16.27;13.38;;;;;;;7.91;100.00;100298.91;4996910;28;20033;-78
2023/04/07 00:37:02;;;;;;;15.43;12.50;;;;;;;8.13;100.00;100342.50;4996070;28;20030;-77
2023/04/07 00:39:27;;;;;;;14.85;13.05;;;;;;;8.37;100.00;100414.00;4996986;28;20453;-77
2023/04/07 00:41:52;;;;;;;14.73;12.77;;;;;;;7.84;100.00;100363.09;4996898;28;20033;-76
2023/04/07 00:44:18;;;;;;;15.00;12.95;;;;;;;8.45;100.00;100403.75;5014154;28;20022;-76
2023/04/07 00:46:46;;;;;;;14.55;12.38;;;;;;;7.97;100.00;100357.03;5013393;28;20386;-76
2023/04/07 00:49:12;;;;;;;14.02;12.20;;;;;;;8.16;100.00;100429.38;4996609;28;20026;-78
2023/04/07 00:51:37;;;;;;;13.00;11.57;;;;;;;7.56;100.00;100285.81;5014244;28;20034;-75
2023/04/07 00:54:02;;;;;;;14.23;11.85;;;;;;;8.27;100.00;100409.06;5013783;28;20056;-77
2023/04/07 00:56:31;;;;;;;14.63;12.68;;;;;;;7.55;100.00;100284.97;4996189;28;20038;-77
2023/04/07 00:58:56;;;;;;;14.20;12.40;;;;;;;8.10;100.00;100383.88;5013540;28;20029;-77
2023/04/07 01:01:26;;;;;;;14.60;13.10;;;;;;;8.24;100.00;100401.47;5013621;28;20152;-77
2023/04/07 01:03:57;;;;;;;13.70;12.23;;;;;;;8.11;100.00;100370.38;4996567;28;20030;-75
2023/04/07 01:06:28;;;;;;;17.85;14.13;;;;;;;8.19;100.00;100404.06;5021241;28;20051;-77
2023/04/07 01:09:08;;;;;;;16.03;14.10;;;;;;;7.60;100.00;100274.81;5034098;28;20072;-76
2023/04/07 01:11:47;;;;;;;15.32;12.63;;;;;;;8.08;100.00;100405.03;5032992;28;20037;-76
2023/04/07 01:14:17;;;;;;;14.98;12.70;;;;;;;7.83;100.00;100328.50;5032596;28;20048;-76
2023/04/07 01:16:47;;;;;;;17.38;13.23;;;;;;;8.21;100.00;100376.16;5031792;28;20107;-76
2023/04/07 01:19:31;;;;;;;16.05;13.50;;;;;;;8.36;100.00;100397.09;5033242;28;20065;-78
2023/04/07 01:21:59;;;;;;;13.68;12.25;;;;;;;8.49;100.00;100385.13;5033423;28;20108;-76
2023/04/07 01:24:51;;;;;;;14.75;13.00;;;;;;;8.49;100.00;100401.19;5032045;28;20038;-76
2023/04/07 01:27:25;;;;;;;16.23;13.80;;;;;;;8.08;100.00;100331.59;5032115;28;20036;-76
2023/04/07 01:29:52;;;;;;;16.00;13.63;;;;;;;8.44;100.00;100402.91;5033313;28;20041;-76
2023/04/07 01:32:22;;;;;;;14.88;13.30;;;;;;;7.58;100.00;100258.81;5032883;28;20061;-75
2023/04/07 01:34:51;;;;;;;14.63;12.65;;;;;;;7.92;100.00;100303.13;5033030;28;20464;-76
2023/04/07 01:37:17;;;;;;;14.68;12.98;;;;;;;8.28;100.00;100368.50;5032888;28;20116;-76
2023/04/07 01:39:43;;;;;;;15.70;12.73;;;;;;;7.40;100.00;100297.78;5033380;28;20494;-76
2023/04/07 01:42:16;;;;;;;17.30;14.15;;;;;;;8.20;100.00;100379.56;5031912;28;20026;-76
2023/04/07 01:44:42;;;;;;;17.80;15.45;;;;;;;8.31;100.00;100398.88;5031376;28;20575;-76
2023/04/07 01:47:07;;;;;;;18.60;16.23;;;;;;;7.59;100.00;100351.53;5031932;28;20073;-76
2023/04/07 01:49:35;;;;;;;21.15;17.00;;;;;;;7.47;100.00;100366.84;5032886;28;20072;-76
2023/04/07 01:52:01;;;;;;;21.42;17.45;;;;;;;8.06;100.00;100463.25;5033217;28;20075;-76
2023/04/07 01:54:27;;;;;;;22.33;18.15;;;;;;;7.94;100.00;100458.34;5031411;28;20492;-76
2023/04/07 01:56:53;;;;;;;21.10;18.83;;;;;;;7.80;100.00;100460.97;5032991;28;20033;-76
2023/04/07 01:59:18;;;;;;;23.42;19.73;;;;;;;7.53;100.00;100471.34;5031434;28;20040;-75
2023/04/07 02:01:52;;;;;;;22.08;19.52;;;;;;;7.56;100.00;100498.31;5031124;28;20535;-77
2023/04/07 02:04:20;;;;;;;23.83;19.67;;;;;;;7.88;100.00;100524.22;5032297;28;20116;-76
2023/04/07 02:06:53;;;;;;;24.60;20.08;;;;;;;7.65;100.00;100505.81;5031054;28;20091;-77
2023/04/07 02:09:21;;;;;;;23.95;20.02;;;;;;;7.23;100.00;100503.59;5032441;28;20033;-76
2023/04/07 02:11:48;;;;;;;22.83;19.48;;;;;;;7.18;100.00;100452.22;5032020;28;20025;-77
2023/04/07 02:14:16;;;;;;;23.77;20.23;;;;;;;7.17;100.00;100491.00;5031845;28;20495;-77
2023/04/07 02:16:42;;;;;;;21.77;19.45;;;;;;;7.52;100.00;100544.72;5031150;28;20040;-77
2023/04/07 02:19:11;;;;;;;24.90;20.30;;;;;;;7.37;100.00;100489.19;5031022;28;20492;-77
2023/04/07 02:21:39;;;;;;;23.55;19.88;;;;;;;7.71;100.00;100562.28;5031052;28;20117;-77
2023/04/07 02:24:06;;;;;;;23.50;19.55;;;;;;;7.55;100.00;100553.13;5031406;28;20052;-76
2023/04/07 02:26:35;;;;;;;23.67;20.45;;;;;;;7.18;100.00;100507.81;5030312;28;20446;-78
2023/04/07 02:29:04;;;;;;;24.63;20.05;;;;;;;7.42;100.00;100563.31;5030297;28;20029;-76
2023/04/07 02:31:30;;;;;;;25.23;20.20;;;;;;;7.63;100.00;100563.19;5019127;28;21125;-76
2023/04/07 02:33:55;;;;;;;28.10;20.20;;;;;;;7.15;100.00;100510.38;5011988;28;20057;-76
2023/04/07 02:36:21;;;;;;;26.88;20.90;;;;;;;7.32;100.00;100511.97;5011223;28;20034;-77
2023/04/07 02:38:46;;;;;;;21.92;19.48;;;;;;;7.13;100.00;100486.81;5011320;28;20484;-77
2023/04/07 02:41:12;;;;;;;23.25;19.10;;;;;;;7.20;100.00;100506.97;5012189;28;20034;-76
2023/04/07 02:43:37;;;;;;;24.30;18.75;;;;;;;7.34;100.00;100527.13;5011507;28;20048;-78
2023/04/07 02:46:03;;;;;;;23.00;19.63;;;;;;;7.11;100.00;100498.59;5012248;28;20453;-77
2023/04/07 02:48:28;;;;;;;23.45;19.23;;;;;;;7.50;100.00;100554.84;5011013;28;20026;-79
2023/04/07 02:50:54;;;;;;;24.65;19.48;;;;;;;7.26;100.00;100506.94;5012152;28;20026;-77
2023/04/07 02:53:19;;;;;;;33.30;26.58;;;;;;;7.60;100.00;100561.53;5010988;28;20037;-76
2023/04/07 02:55:45;;;;;;;34.45;25.60;;;;;;;7.93;100.00;100585.75;5011582;28;20022;-76
2023/04/07 02:58:10;;;;;;;25.88;21.05;;;;;;;7.39;100.00;100503.47;5012581;28;20037;-75
2023/04/07 03:00:36;;;;;;;24.55;20.88;;;;;;;7.70;100.00;100574.94;5011593;28;20412;-76
2023/04/07 03:03:01;;;;;;;25.40;20.00;;;;;;;7.32;100.00;100509.44;5010646;28;20033;-77
2023/04/07 03:05:27;;;;;;;22.00;19.58;;;;;;;7.32;100.00;100495.94;5010902;28;20040;-76
2023/04/07 03:07:52;;;;;;;23.83;18.95;;;;;;;7.63;100.00;100576.69;5013354;28;20052;-76
2023/04/07 03:10:17;;;;;;;22.38;19.77;;;;;;;7.67;100.00;100574.97;5031140;28;20045;-77
2023/04/07 03:12:43;;;;;;;25.45;20.50;;;;;;;7.65;100.00;100584.25;5030990;28;20029;-78
2023/04/07 03:15:09;;;;;;;23.45;20.50;;;;;;;7.69;100.00;100566.50;5013605;28;20507;-78
2023/04/07 03:17:35;;;;;;;23.52;19.85;;;;;;;7.77;100.00;100587.53;5014099;28;20028;-77
2023/04/07 03:20:01;;;;;;;24.80;20.15;;;;;;;7.73;100.00;100596.00;5012447;28;20091;-77
2023/04/07 03:22:26;;;;;;;24.13;20.52;;;;;;;7.88;100.00;100600.13;5042771;28;20041;-76
2023/04/07 03:24:52;;;;;;;27.42;23.02;;;;;;;7.83;100.00;100596.78;5037348;28;20072;-76
2023/04/07 03:27:19;;;;;;;28.25;21.98;;;;;;;7.57;100.00;100548.88;5037082;28;20029;-75
2023/04/07 03:29:44;;;;;;;22.00;19.02;;;;;;;7.25;100.00;100520.41;5037274;28;20396;-76
2023/04/07 03:32:10;;;;;;;23.00;18.98;;;;;;;7.34;100.00;100514.47;5016818;28;20091;-76
2023/04/07 03:34:35;;;;;;;23.10;19.63;;;;;;;7.45;100.00;100528.72;5015343;28;20025;-76
2023/04/07 03:37:00;;;;;;;21.23;16.95;;;;;;;8.81;100.00;100575.66;5036822;28;20021;-74
2023/04/07 03:39:26;;;;;;;26.58;21.35;;;;;;;7.45;100.00;100502.59;5070286;28;20186;-77
2023/04/07 03:41:51;;;;;;;30.08;22.38;;;;;;;7.87;100.00;100576.50;5037481;28;20032;-76
2023/04/07 03:44:17;;;;;;;24.23;18.73;;;;;;;7.69;100.00;100563.13;5070335;28;20040;-75
2023/04/07 03:46:44;;;;;;;24.35;19.63;;;;;;;6.73;100.00;100403.66;5054272;28;20115;-77
2023/04/07 03:49:10;;;;;;;26.98;20.55;;;;;;;7.62;100.00;100559.84;5027950;28;20116;-76
2023/04/07 03:51:38;;;;;;;27.02;20.63;;;;;;;7.88;100.00;100564.69;5035046;28;20061;-76
2023/04/07 03:54:04;;;;;;;36.33;27.08;;;;;;;7.79;100.00;100585.00;5016207;28;20033;-77
2023/04/07 03:56:30;;;;;;;36.45;27.65;;;;;;;7.19;100.00;100509.53;5033420;28;20026;-78
2023/04/07 03:58:55;;;;;;;32.28;25.80;;;;;;;7.31;100.00;100507.75;5038661;28;20035;-76
2023/04/07 04:01:21;;;;;;;27.25;23.17;;;;;;;7.79;100.00;100570.66;5029513;28;20025;-77
2023/04/07 04:03:46;;;;;;;35.88;26.98;;;;;;;7.86;100.00;100574.81;5016424;28;20487;-77
2023/04/07 04:06:11;;;;;;;36.25;27.17;;;;;;;7.81;100.00;100585.84;5013067;28;20115;-75
2023/04/07 04:08:37;;;;;;;33.60;26.15;;;;;;;7.61;100.00;100559.81;4996966;28;20428;-77
2023/04/07 04:11:02;;;;;;;27.08;21.50;;;;;;;7.16;100.00;100453.91;5013837;28;20029;-77
2023/04/07 04:13:28;;;;;;;24.58;19.83;;;;;;;7.12;100.00;100460.69;4997083;28;20038;-76
2023/04/07 04:15:53;;;;;;;26.02;20.75;;;;;;;7.13;100.00;100461.53;5013417;28;20045;-76
2023/04/07 04:18:19;;;;;;;26.67;20.25;;;;;;;7.47;100.00;100529.56;5014044;28;20038;-79
2023/04/07 04:20:45;;;;;;;27.38;20.50;;;;;;;7.82;100.00;100592.59;5046402;28;20531;-78
2023/04/07 04:23:10;;;;;;;22.00;19.55;;;;;;;8.02;100.00;100602.56;5013618;28;20034;-76
2023/04/07 04:25:38;;;;;;;28.63;22.95;;;;;;;7.23;100.00;100521.31;5013492;28;20057;-77
2023/04/07 04:28:04;;;;;;;32.65;25.52;;;;;;;7.35;100.00;100604.69;5014491;28;20057;-76
2023/04/07 04:30:29;;;;;;;30.13;24.65;;;;;;;7.37;100.00;100581.03;5013952;28;20129;-75
2023/04/07 04:32:55;;;;;;;30.27;25.67;;;;;;;7.44;100.00;100623.19;5011236;28;20409;-76
2023/04/07 04:35:20;;;;;;;55.70;39.47;;;;;;;6.73;100.00;100498.78;5013431;28;20175;-75
2023/04/07 04:37:46;;;;;;;36.42;29.42;;;;;;;7.45;100.00;100647.59;5012942;28;20034;-77
2023/04/07 04:40:12;;;;;;;26.83;23.63;;;;;;;6.56;100.00;100561.13;5026284;28;20037;-77
2023/04/07 04:42:37;;;;;;;32.25;24.40;;;;;;;6.67;100.00;100562.81;4996801;28;20475;-76
2023/04/07 04:45:03;;;;;;;29.02;25.58;;;;;;;6.82;100.00;100592.22;4986644;28;20030;-76
2023/04/07 04:47:28;;;;;;;31.08;24.95;;;;;;;7.31;100.00;100666.22;5006209;28;20021;-73
2023/04/07 04:49:54;;;;;;;33.63;24.80;;;;;;;6.87;100.00;100606.53;5004675;28;20120;-76
2023/04/07 04:52:19;;;;;;;27.63;24.33;;;;;;;7.17;100.00;100683.13;5012583;28;20042;-76
2023/04/07 04:54:45;;;;;;;30.88;25.95;;;;;;;6.85;100.00;100623.38;5013252;28;20108;-76
2023/04/07 04:57:10;;;;;;;32.25;26.67;;;;;;;7.36;100.00;100689.81;4995652;28;20029;-76
2023/04/07 04:59:36;;;;;;;37.53;28.75;;;;;;;7.48;100.00;100699.88;5012455;28;20037;-76
2023/04/07 05:02:04;;;;;;;37.85;29.02;;;;;;;7.32;100.00;100662.84;5012966;28;20033;-76
2023/04/07 05:04:36;;;;;;;34.60;27.73;;;;;;;7.07;100.00;100636.81;5011983;28;20038;-74
2023/04/07 05:07:03;;;;;;;38.22;28.95;;;;;;;7.56;100.00;100723.47;4994908;28;20902;-73
2023/04/07 05:09:28;;;;;;;33.65;26.48;;;;;;;7.01;100.00;100717.72;5012466;28;20068;-76
2023/04/07 05:11:53;;;;;;;33.63;26.17;;;;;;;6.18;100.00;100606.63;5012625;28;20041;-75
2023/04/07 05:14:19;;;;;;;32.60;25.90;;;;;;;6.98;100.00;100645.25;5027538;28;20034;-75
2023/04/07 05:16:44;;;;;;;32.35;25.20;;;;;;;6.81;100.00;100657.06;5011650;28;20051;-76
2023/04/07 05:19:10;;;;;;;37.10;26.05;;;;;;;6.19;100.00;100638.63;4994346;28;20033;-76
2023/04/07 05:21:35;;;;;;;64.88;38.85;;;;;;;6.68;100.00;100601.53;5012460;28;20045;-75
2023/04/07 05:24:01;;;;;;;56.05;36.25;;;;;;;6.72;100.00;100687.44;4995525;28;20034;-75
2023/04/07 05:26:26;;;;;;;27.52;22.30;;;;;;;7.38;100.00;100748.81;4995323;28;20021;-74
2023/04/07 05:28:51;;;;;;;28.52;23.25;;;;;;;7.40;100.00;100750.50;4995258;28;20492;-76
2023/04/07 05:31:17;;;;;;;26.75;20.98;;;;;;;7.37;100.00;100753.03;5012838;28;20060;-75
2023/04/07 05:33:42;;;;;;;28.08;22.65;;;;;;;7.34;100.00;100744.59;5012586;28;20034;-75
2023/04/07 05:36:08;;;;;;;37.20;28.85;;;;;;;7.31;100.00;100731.97;5012839;28;20034;-76
2023/04/07 05:38:33;;;;;;;29.55;23.25;;;;;;;7.53;100.00;100744.53;4995807;28;20491;-76
2023/04/07 05:41:02;;;;;;;38.15;31.27;;;;;;;6.98;100.00;100760.69;4995587;28;20487;-76
2023/04/07 05:43:31;;;;;;;35.70;28.67;;;;;;;7.18;100.00;100743.81;4994890;28;20053;-76
2023/04/07 05:45:57;;;;;;;28.92;20.80;;;;;;;6.81;100.00;100755.63;4995200;28;20022;-75
2023/04/07 05:48:22;;;;;;;25.83;23.10;;;;;;;7.09;100.00;100740.47;5012943;28;20072;-76
2023/04/07 05:50:47;;;;;;;26.95;22.83;;;;;;;6.72;100.00;100653.72;5012403;28;20033;-76
2023/04/07 05:53:14;;;;;;;28.83;21.50;;;;;;;7.17;100.00;100746.34;5012439;28;20069;-76
2023/04/07 05:55:41;;;;;;;26.65;21.35;;;;;;;6.73;100.00;100679.00;5012494;28;20092;-76
2023/04/07 05:58:07;;;;;;;27.27;21.95;;;;;;;6.69;100.00;100697.56;5012573;28;20488;-77
2023/04/07 06:00:32;;;;;;;27.50;22.08;;;;;;;6.92;100.00;100687.41;4995278;28;20060;-77
2023/04/07 06:02:57;;;;;;;32.05;23.38;;;;;;;7.38;100.00;100675.47;5011611;28;20033;-78
2023/04/07 06:05:23;;;;;;;31.45;23.63;;;;;;;7.76;100.00;100754.59;5012398;28;20096;-76
2023/04/07 06:07:48;;;;;;;28.45;22.48;;;;;;;7.38;100.00;100647.66;4994593;28;20057;-76
2023/04/07 06:10:14;;;;;;;31.85;23.55;;;;;;;7.17;100.00;100675.56;5027511;28;20065;-76
2023/04/07 06:12:40;;;;;;;31.75;22.70;;;;;;;7.83;100.00;100758.75;4995050;28;20052;-75
2023/04/07 06:15:05;;;;;;;42.15;31.52;;;;;;;7.69;100.00;100752.91;4994212;28;20037;-75
2023/04/07 06:17:31;;;;;;;31.27;25.65;;;;;;;8.33;100.00;100763.59;5011688;28;20113;-76
2023/04/07 06:19:56;;;;;;;29.92;22.95;;;;;;;8.29;100.00;100782.19;4994619;28;20412;-76
2023/04/07 06:22:22;;;;;;;31.25;23.58;;;;;;;8.14;100.00;100709.66;4994666;28;20034;-76
2023/04/07 06:24:47;;;;;;;30.67;23.30;;;;;;;8.37;100.00;100758.50;5012196;28;20030;-76
2023/04/07 06:27:12;;;;;;;29.83;24.35;;;;;;;8.09;100.00;100713.06;5012032;28;20033;-77
2023/04/07 06:29:38;;;;;;;26.60;22.35;;;;;;;8.10;100.00;100687.72;4994263;28;20048;-76
2023/04/07 06:32:03;;;;;;;27.48;22.42;;;;;;;8.20;100.00;100757.72;4994646;28;20026;-77
2023/04/07 06:34:29;;;;;;;29.05;22.45;;;;;;;8.29;100.00;100740.00;5012034;28;20512;-77
2023/04/07 06:36:54;;;;;;;30.35;24.63;;;;;;;7.98;100.00;100686.97;4994588;28;20125;-76
2023/04/07 06:39:20;;;;;;;30.83;22.67;;;;;;;8.25;100.00;100783.06;4994507;28;20042;-78
2023/04/07 06:41:45;;;;;;;31.05;23.40;;;;;;;7.65;100.00;100650.88;4994696;28;20095;-76
2023/04/07 06:44:11;;;;;;;33.30;25.15;;;;;;;8.07;100.00;100694.50;4994965;28;20122;-77
2023/04/07 06:46:37;;;;;;;36.92;26.60;;;;;;;8.49;100.00;100743.22;5012476;28;20038;-76
2023/04/07 06:49:02;;;;;;;42.05;31.98;;;;;;;8.42;100.00;100746.66;5027095;28;20420;-76
2023/04/07 06:51:28;;;;;;;37.97;26.88;;;;;;;8.46;100.00;100684.13;5012033;28;20512;-76
2023/04/07 06:53:54;;;;;;;39.67;29.05;;;;;;;8.57;100.00;100745.69;5027165;28;20085;-76
2023/04/07 06:56:19;;;;;;;38.65;27.63;;;;;;;8.79;100.00;100774.25;5014762;28;20036;-77
2023/04/07 06:58:45;;;;;;;38.10;27.70;;;;;;;8.92;100.00;100768.22;5015808;28;20034;-76
2023/04/07 07:01:19;;;;;;;35.47;28.63;;;;;;;9.21;100.00;100778.97;4998720;28;20038;-76
2023/04/07 07:03:45;;;;;;;36.67;28.90;;;;;;;8.91;100.00;100775.00;4998325;28;20036;-76
2023/04/07 07:06:10;;;;;;;40.95;27.95;;;;;;;8.19;100.00;100687.69;4998193;28;20077;-76
2023/04/07 07:08:38;;;;;;;37.78;29.40;;;;;;;9.21;100.00;100761.22;5016074;28;20381;-76
2023/04/07 07:11:03;;;;;;;36.17;27.27;;;;;;;8.83;100.00;100720.13;5015351;28;20041;-75
2023/04/07 07:13:29;;;;;;;36.95;27.42;;;;;;;8.48;100.00;100744.06;5016197;28;20018;-75
2023/04/07 07:15:54;;;;;;;35.53;27.95;;;;;;;8.65;100.00;100765.06;5015375;28;20126;-77
2023/04/07 07:18:20;;;;;;;32.83;26.48;;;;;;;8.42;100.00;100693.44;5015855;28;20033;-76
2023/04/07 07:20:45;;;;;;;30.48;25.88;;;;;;;8.49;100.00;100767.72;5015165;28;20025;-76
2023/04/07 07:23:11;;;;;;;31.65;25.60;;;;;;;8.92;100.00;100699.75;4997573;28;20084;-76
2023/04/07 07:25:36;;;;;;;30.40;25.45;;;;;;;8.84;100.00;100709.97;5030659;28;20084;-76
2023/04/07 07:28:02;;;;;;;31.48;24.08;;;;;;;9.18;100.00;100766.28;4997455;28;20404;-77
2023/04/07 07:30:27;;;;;;;31.23;25.55;;;;;;;9.21;100.00;100746.81;5030588;28;20424;-76
2023/04/07 07:32:53;;;;;;;33.30;25.02;;;;;;;9.56;100.00;100780.28;5014414;28;20041;-78
2023/04/07 07:35:19;;;;;;;62.10;43.60;;;;;;;9.42;100.00;100771.97;5029928;28;20034;-76
2023/04/07 07:37:45;;;;;;;34.38;27.08;;;;;;;8.79;100.00;100695.66;4996614;28;20704;-76
2023/04/07 07:40:11;;;;;;;28.80;23.42;;;;;;;9.00;100.00;100703.06;5013070;28;20030;-75
2023/04/07 07:42:37;;;;;;;23.33;19.90;;;;;;;9.02;100.00;100689.53;4995662;28;20080;-75
2023/04/07 07:45:03;;;;;;;27.38;18.88;;;;;;;9.59;100.00;100744.69;4995663;28;20111;-75
2023/04/07 07:47:28;;;;;;;22.10;19.75;;;;;;;9.42;100.00;100738.97;4995176;28;20026;-76
2023/04/07 07:49:54;;;;;;;21.10;18.40;;;;;;;9.72;100.00;100747.94;4995207;28;20089;-75
2023/04/07 07:52:20;;;;;;;23.88;18.85;;;;;;;9.54;100.00;100726.16;4995331;28;20057;-76
2023/04/07 07:54:46;;;;;;;22.35;18.75;;;;;;;9.22;100.00;100661.41;4995869;28;20042;-75
2023/04/07 07:57:12;;;;;;;25.30;19.70;;;;;;;9.06;100.00;100632.00;4995138;28;20041;-76
2023/04/07 07:59:39;;;;;;;22.85;18.83;;;;;;;9.61;100.00;100641.44;4995472;28;20027;-77
2023/04/07 08:02:05;;;;;;;22.25;18.90;;;;;;;9.40;100.00;100640.88;4995089;28;20400;-76
2023/04/07 08:04:30;;;;;;;24.33;19.15;;;;;;;9.83;100.00;100681.75;4994732;28;20070;-75
2023/04/07 08:06:57;;;;;;;26.20;19.40;;;;;;;10.04;100.00;100695.00;4993420;28;20054;-77
2023/04/07 08:09:22;;;;;;;24.83;19.08;;;;;;;9.76;100.00;100696.25;4995289;28;20042;-75
2023/04/07 08:11:48;;;;;;;22.25;18.02;;;;;;;9.91;100.00;100703.66;4993736;28;20027;-78
2023/04/07 08:14:14;;;;;;;24.58;18.50;;;;;;;9.69;100.00;100694.66;4993638;28;20544;-75
2023/04/07 08:16:40;;;;;;;24.85;19.48;;;;;;;9.97;100.00;100701.03;4994381;28;20062;-76
2023/04/07 08:19:05;;;;;;;20.77;18.58;;;;;;;9.63;100.00;100649.03;4977679;28;20124;-76
2023/04/07 08:21:31;;;;;;;22.38;18.45;;;;;;;10.51;100.00;100666.38;4994662;28;20038;-76
2023/04/07 08:23:57;;;;;;;16.98;15.05;;;;;;;9.78;100.00;100630.22;4994883;28;20040;-79
2023/04/07 08:26:22;;;;;;;17.52;14.77;;;;;;;9.87;100.00;100684.25;4993141;28;20215;-77
2023/04/07 08:28:52;;;;;;;17.80;15.27;;;;;;;10.73;100.00;100677.00;4994629;28;20519;-77
2023/04/07 08:31:18;;;;;;;17.95;14.90;;;;;;;10.55;100.00;100662.06;4977100;28;20080;-77
2023/04/07 08:33:44;;;;;;;15.20;13.30;;;;;;;9.77;100.00;100596.38;4993120;28;20524;-77
2023/04/07 08:36:09;;;;;;;22.23;15.82;;;;;;;10.30;100.00;100644.66;4993366;28;20485;-76
2023/04/07 08:38:35;;;;;;;17.80;13.52;;;;;;;10.65;100.00;100638.16;4993538;28;20481;-77
2023/04/07 08:41:06;;;;;;;16.83;12.70;;;;;;;9.94;100.00;100558.03;4976864;28;20058;-78
2023/04/07 08:43:34;;;;;;;14.07;12.40;;;;;;;9.82;100.00;100625.09;4993024;28;20150;-77
2023/04/07 08:46:01;;;;;;;16.33;13.15;;;;;;;10.68;100.00;100633.00;4993412;28;20126;-75
2023/04/07 08:48:32;;;;;;;15.98;12.15;;;;;;;10.89;100.00;100605.50;4993478;28;20038;-76
2023/04/07 08:51:03;;;;;;;21.08;14.35;;;;;;;10.61;100.00;100568.72;4977183;28;20031;-77
2023/04/07 08:53:35;;;;;;;13.90;12.07;;;;;;;10.37;100.00;100485.31;4994126;28;20038;-76
2023/04/07 08:56:00;;;;;;;;;;;;;;;10.79;100.00;100554.81;4994610;28;20073;-76
2023/04/07 08:58:26;;;;;;;26.63;17.23;;;;;;;9.33;100.00;100432.06;4993802;28;19969;-78
2023/04/07 09:00:52;;;;;;;16.67;14.05;;;;;;;10.50;100.00;100514.69;4992880;28;20192;-76
2023/04/07 09:03:18;;;;;;;16.98;13.55;;;;;;;10.97;100.00;100577.38;4993847;28;20469;-76
2023/04/07 09:05:47;;;;;;;18.92;15.23;;;;;;;11.50;100.00;100563.50;4992427;28;20038;-75
2023/04/07 09:08:12;;;;;;;17.50;14.88;;;;;;;10.98;100.00;100569.69;4991876;28;20050;-72
2023/04/07 09:10:38;;;;;;;19.98;15.38;;;;;;;10.86;100.00;100519.06;4993274;28;20053;-76
2023/04/07 09:13:03;;;;;;;17.63;15.10;;;;;;;10.20;100.00;100500.84;4976239;28;20511;-74
2023/04/07 09:15:30;;;;;;;18.58;15.00;;;;;;;10.46;100.00;100503.75;4658291;28;10000393;-78
2023/04/07 09:17:57;;;;;;;21.67;15.90;;;;;;;11.70;100.00;100582.59;5012569;28;20036;-75
2023/04/07 09:20:22;;;;;;;20.67;16.75;;;;;;;12.03;100.00;100515.53;4999367;28;20067;-75
2023/04/07 09:22:49;;;;;;;16.60;14.75;;;;;;;11.64;100.00;100498.66;5011336;28;20061;-77
2023/04/07 09:25:17;;;;;;;16.30;14.60;;;;;;;11.93;100.00;100552.31;5011994;28;20026;-75
2023/04/07 09:28:02;;;;;;;17.67;15.13;;;;;;;11.87;100.00;100516.78;5009514;28;20044;-75
2023/04/07 09:30:29;;;;;;;18.80;14.70;;;;;;;11.54;100.00;100459.00;5026100;28;20034;-78
2023/04/07 09:32:58;;;;;;;16.10;14.40;;;;;;;12.00;100.00;100504.59;4990327;28;20121;-81
2023/04/07 09:35:27;;;;;;;16.17;14.32;;;;;;;11.34;100.00;100445.91;4993839;28;20149;-78
2023/04/07 09:38:07;;;;;;;19.55;15.18;;;;;;;11.42;100.00;100505.13;4992523;28;20099;-76
2023/04/07 09:40:33;;;;;;;18.88;14.95;;;;;;;11.19;100.00;100492.91;4975030;28;20059;-77
2023/04/07 09:42:59;;;;;;;20.38;16.20;;;;;;;11.52;100.00;100487.91;4992770;28;20033;-76
2023/04/07 09:45:30;;;;;;;21.48;16.27;;;;;;;11.54;100.00;100486.16;4992120;28;20040;-77
2023/04/07 09:47:56;;;;;;;22.60;16.77;;;;;;;11.24;100.00;100510.63;5026554;28;20090;-78
2023/04/07 09:50:34;;;;;;;21.55;17.05;;;;;;;11.35;100.00;100473.88;5008128;28;20042;-77
2023/04/07 09:53:00;;;;;;;18.92;16.33;;;;;;;12.10;100.00;100453.31;4992972;28;20026;-77
2023/04/07 09:55:27;;;;;;;23.70;16.15;;;;;;;12.29;100.00;100437.53;4975978;28;20030;-76
2023/04/07 09:57:54;;;;;;;21.00;15.90;;;;;;;11.60;100.00;100328.13;4975832;28;20481;-76
2023/04/07 10:00:21;;;;;;;17.15;14.15;;;;;;;13.40;100.00;100418.88;4974718;28;20034;-76
2023/04/07 10:02:46;;;;;;;18.85;14.48;;;;;;;12.68;100.00;100357.31;4974914;28;20041;-76
2023/04/07 10:05:12;;;;;;;20.85;15.77;;;;;;;12.44;100.00;100322.38;4974469;28;20034;-76
2023/04/07 10:07:38;;;;;;;16.40;14.50;;;;;;;12.63;100.00;100303.91;4974111;28;20053;-77
2023/04/07 10:10:03;;;;;;;14.18;12.38;;;;;;;12.46;100.00;100229.63;4973765;28;20037;-80
2023/04/07 10:12:32;;;;;;;14.63;12.82;;;;;;;12.98;100.00;100182.84;4974229;28;20026;-79
2023/04/07 10:15:00;;;;;;;16.23;14.10;;;;;;;13.10;100.00;100080.34;4974238;28;20038;-77
2023/04/07 10:17:27;;;;;;;14.82;13.35;;;;;;;11.95;100.00;99981.53;5007604;28;20089;-78
2023/04/07 10:19:54;;;;;;;14.43;12.10;;;;;;;13.23;100.00;100045.78;4992320;28;20093;-77
2023/04/07 10:22:21;;;;;;;14.40;12.57;;;;;;;12.83;100.00;99992.00;4975977;28;20072;-77
2023/04/07 10:24:49;;;;;;;12.30;11.05;;;;;;;12.39;100.00;99973.22;4975780;28;20462;-78
2023/04/07 10:27:21;;;;;;;18.90;12.27;;;;;;;13.66;100.00;99965.78;5007807;28;20146;-77
2023/04/07 10:29:50;;;;;;;11.88;10.65;;;;;;;12.70;100.00;99906.59;4992948;28;20433;-77
2023/04/07 10:32:16;;;;;;;15.23;10.95;;;;;;;13.19;100.00;99971.97;4975371;28;20109;-78
2023/04/07 10:34:52;;;;;;;13.55;11.65;;;;;;;13.31;100.00;100180.88;4991994;28;20481;-77
2023/04/07 10:37:21;;;;;;;12.18;10.35;;;;;;;13.71;100.00;100209.16;4992917;28;20089;-78
2023/04/07 10:39:51;;;;;;;13.48;11.45;;;;;;;14.22;100.00;100216.59;5007785;28;20069;-77
2023/04/07 10:42:35;;;;;;;13.63;11.02;;;;;;;13.43;100.00;100564.34;4985601;28;20497;-77
2023/04/07 10:45:02;;;;;;;12.00;10.50;;;;;;;14.79;100.00;101412.41;4992454;28;20037;-78
2023/04/07 10:47:32;;;;;;;12.88;10.65;;;;;;;14.37;100.00;101349.34;5008089;28;20037;-78
2023/04/07 10:50:15;;;;;;;13.82;10.82;;;;;;;15.04;100.00;101334.13;5007607;28;20029;-78
2023/04/07 10:52:41;;;;;;;15.73;12.85;;;;;;;14.26;100.00;101173.00;4992247;28;20559;-78
2023/04/07 10:55:28;;;;;;;13.80;11.55;;;;;;;14.88;100.00;101202.19;4974756;28;20042;-78
2023/04/07 10:58:14;;;;;;;13.38;11.20;;;;;;;15.01;100.00;101134.44;4992673;28;20034;-75
2023/04/07 11:00:39;;;;;;;12.25;9.95;;;;;;;14.64;100.00;100977.56;4992333;28;20022;-76
2023/04/07 11:03:12;;;;;;;10.63;9.50;;;;;;;14.94;100.00;100942.53;4974990;28;20500;-78
2023/04/07 11:05:42;;;;;;;10.52;9.40;;;;;;;15.32;100.00;101336.84;4975486;28;20065;-78